El Fayoum, Egypt
Current Conditions -  °F | °C
As of 7:30 AM on Sunday 23 Nov 2014 (Local Time) from HECA Reporting Station
Scattered Clouds Scattered Clouds  
Wind Chill: 59°   Ceiling: Unl
Heat Index: 59°   Visibility: 4mi
Dew Point: 48°   Wind: 0mph
Humidity: 67%   Direction: NA
Pressure: 30.06"   Gusts: NA
Location:  29.32°N, 30.83°E
Report Text: HECA 230530Z 00000KT 6000 SCT025 15/09 Q1018 TEMPO 4000
Loading
Personal Weather Stations






























Interactive Weather Map New forecast layout! Learn more

10-Day Weather Forecast

Advertisements
Track Severe Weather on mobile